sensor_id;sensor_type;location;lat;lon;timestamp;pressure;altitude;pressure_sealevel;temperature;humidity
70015;BME280;57358;51.094;6.760;2023-03-23T00:01:07;100023.41;;;12.18;100.00
70015;BME280;57358;51.094;6.760;2023-03-23T00:03:36;99933.09;;;11.55;100.00
70015;BME280;57358;51.094;6.760;2023-03-23T00:06:01;100015.94;;;12.12;100.00
70015;BME280;57358;51.094;6.760;2023-03-23T00:08:36;100004.59;;;12.12;100.00
70015;BME280;57358;51.094;6.760;2023-03-23T00:11:19;99961.81;;;11.97;100.00
70015;BME280;57358;51.094;6.760;2023-03-23T00:13:46;100002.38;;;12.18;100.00
70015;BME280;57358;51.094;6.760;2023-03-23T00:16:13;100003.97;;;12.21;100.00
70015;BME280;57358;51.094;6.760;2023-03-23T00:18:45;100004.25;;;12.16;100.00
70015;BME280;57358;51.094;6.760;2023-03-23T00:21:10;99949.78;;;11.80;100.00
70015;BME280;57358;51.094;6.760;2023-03-23T00:23:36;99974.00;;;12.11;100.00
70015;BME280;57358;51.094;6.760;2023-03-23T00:26:01;99895.44;;;11.68;100.00
70015;BME280;57358;51.094;6.760;2023-03-23T00:28:27;99981.44;;;12.17;100.00
70015;BME280;57358;51.094;6.760;2023-03-23T00:30:57;99959.63;;;11.91;100.00
70015;BME280;57358;51.094;6.760;2023-03-23T00:33:28;99947.38;;;11.77;100.00
70015;BME280;57358;51.094;6.760;2023-03-23T00:35:54;99992.91;;;12.16;100.00
70015;BME280;57358;51.094;6.760;2023-03-23T00:38:24;99990.72;;;12.10;100.00
70015;BME280;57358;51.094;6.760;2023-03-23T00:40:50;99996.06;;;12.08;100.00
70015;BME280;57358;51.094;6.760;2023-03-23T00:43:16;99980.31;;;11.95;100.00
70015;BME280;57358;51.094;6.760;2023-03-23T00:45:43;99926.56;;;11.61;100.00
70015;BME280;57358;51.094;6.760;2023-03-23T00:48:11;99836.41;;;10.96;100.00
70015;BME280;57358;51.094;6.760;2023-03-23T00:50:38;99976.63;;;11.85;100.00
70015;BME280;57358;51.094;6.760;2023-03-23T00:53:04;99992.72;;;11.93;100.00
70015;BME280;57358;51.094;6.760;2023-03-23T00:55:30;99979.59;;;11.93;100.00
70015;BME280;57358;51.094;6.760;2023-03-23T00:57:55;99975.16;;;11.94;100.00
70015;BME280;57358;51.094;6.760;2023-03-23T01:00:21;99969.88;;;11.81;100.00
70015;BME280;57358;51.094;6.760;2023-03-23T01:02:48;99991.31;;;11.88;100.00
70015;BME280;57358;51.094;6.760;2023-03-23T01:05:13;99978.59;;;11.82;100.00
70015;BME280;57358;51.094;6.760;2023-03-23T01:07:41;99994.19;;;11.85;100.00
70015;BME280;57358;51.094;6.760;2023-03-23T01:10:07;99966.19;;;11.58;100.00
70015;BME280;57358;51.094;6.760;2023-03-23T01:12:32;99931.81;;;11.48;100.00
70015;BME280;57358;51.094;6.760;2023-03-23T01:14:58;99794.69;;;10.66;100.00
70015;BME280;57358;51.094;6.760;2023-03-23T01:17:24;99989.84;;;11.84;100.00
70015;BME280;57358;51.094;6.760;2023-03-23T01:19:49;99989.97;;;11.82;100.00
70015;BME280;57358;51.094;6.760;2023-03-23T01:22:15;99990.06;;;11.81;100.00
70015;BME280;57358;51.094;6.760;2023-03-23T01:24:40;99992.59;;;11.82;100.00
70015;BME280;57358;51.094;6.760;2023-03-23T01:27:06;99776.38;;;10.39;100.00
70015;BME280;57358;51.094;6.760;2023-03-23T01:29:35;99984.72;;;11.69;100.00
70015;BME280;57358;51.094;6.760;2023-03-23T01:32:01;99988.50;;;11.65;100.00
70015;BME280;57358;51.094;6.760;2023-03-23T01:34:27;99989.84;;;11.84;100.00
70015;BME280;57358;51.094;6.760;2023-03-23T01:36:52;99991.00;;;11.80;100.00
70015;BME280;57358;51.094;6.760;2023-03-23T01:39:18;100002.47;;;11.78;100.00
70015;BME280;57358;51.094;6.760;2023-03-23T01:41:43;100008.28;;;11.71;100.00
70015;BME280;57358;51.094;6.760;2023-03-23T01:46:40;99945.69;;;11.25;100.00
70015;BME280;57358;51.094;6.760;2023-03-23T01:49:09;99959.44;;;11.28;100.00
70015;BME280;57358;51.094;6.760;2023-03-23T01:51:43;99973.31;;;11.30;100.00
70015;BME280;57358;51.094;6.760;2023-03-23T01:54:13;99964.81;;;11.27;100.00
70015;BME280;57358;51.094;6.760;2023-03-23T01:56:41;99987.63;;;11.39;100.00
70015;BME280;57358;51.094;6.760;2023-03-23T01:59:11;99812.19;;;10.26;100.00
70015;BME280;57358;51.094;6.760;2023-03-23T02:01:37;99964.69;;;11.28;100.00
70015;BME280;57358;51.094;6.760;2023-03-23T02:04:05;99958.91;;;11.23;100.00
70015;BME280;57358;51.094;6.760;2023-03-23T02:06:32;99923.16;;;11.08;100.00
70015;BME280;57358;51.094;6.760;2023-03-23T02:08:59;99872.56;;;10.66;100.00
70015;BME280;57358;51.094;6.760;2023-03-23T02:11:25;99922.00;;;10.99;100.00
70015;BME280;57358;51.094;6.760;2023-03-23T02:13:50;99790.03;;;10.17;100.00
70015;BME280;57358;51.094;6.760;2023-03-23T02:19:23;99928.72;;;11.03;100.00
70015;BME280;57358;51.094;6.760;2023-03-23T02:33:21;99910.94;;;10.94;100.00
70015;BME280;57358;51.094;6.760;2023-03-23T02:36:13;99829.91;;;10.49;100.00
70015;BME280;57358;51.094;6.760;2023-03-23T02:39:02;99844.31;;;10.56;100.00
70015;BME280;57358;51.094;6.760;2023-03-23T02:41:32;99883.72;;;10.69;100.00
70015;BME280;57358;51.094;6.760;2023-03-23T02:44:02;99887.88;;;10.59;100.00
70015;BME280;57358;51.094;6.760;2023-03-23T02:46:28;99913.75;;;10.78;100.00
70015;BME280;57358;51.094;6.760;2023-03-23T02:48:55;99880.59;;;10.50;100.00
70015;BME280;57358;51.094;6.760;2023-03-23T02:51:22;99891.09;;;10.50;100.00
70015;BME280;57358;51.094;6.760;2023-03-23T02:53:50;99869.97;;;10.38;100.00
70015;BME280;57358;51.094;6.760;2023-03-23T02:56:18;99929.16;;;10.70;100.00
70015;BME280;57358;51.094;6.760;2023-03-23T02:58:44;99939.66;;;10.70;100.00
70015;BME280;57358;51.094;6.760;2023-03-23T03:03:50;99923.72;;;10.73;100.00
70015;BME280;57358;51.094;6.760;2023-03-23T03:09:13;99922.56;;;10.77;100.00
70015;BME280;57358;51.094;6.760;2023-03-23T03:11:49;99928.47;;;10.81;100.00
70015;BME280;57358;51.094;6.760;2023-03-23T03:14:22;99866.25;;;10.68;100.00
70015;BME280;57358;51.094;6.760;2023-03-23T03:17:10;99908.41;;;10.92;100.00
70015;BME280;57358;51.094;6.760;2023-03-23T03:19:42;99845.69;;;10.62;100.00
70015;BME280;57358;51.094;6.760;2023-03-23T03:22:08;99867.00;;;10.70;100.00
70015;BME280;57358;51.094;6.760;2023-03-23T03:24:35;99887.31;;;10.81;100.00
70015;BME280;57358;51.094;6.760;2023-03-23T03:27:10;99876.72;;;10.83;100.00
70015;BME280;57358;51.094;6.760;2023-03-23T03:29:40;99911.41;;;11.01;100.00
70015;BME280;57358;51.094;6.760;2023-03-23T03:32:12;99909.38;;;11.04;100.00
70015;BME280;57358;51.094;6.760;2023-03-23T03:34:39;99932.28;;;11.02;100.00
70015;BME280;57358;51.094;6.760;2023-03-23T03:37:05;99895.94;;;10.96;100.00
70015;BME280;57358;51.094;6.760;2023-03-23T03:39:34;99878.28;;;10.72;100.00
70015;BME280;57358;51.094;6.760;2023-03-23T03:42:00;99916.75;;;10.99;100.00
70015;BME280;57358;51.094;6.760;2023-03-23T03:44:25;99737.91;;;9.85;100.00
70015;BME280;57358;51.094;6.760;2023-03-23T03:46:51;99885.31;;;10.85;100.00
70015;BME280;57358;51.094;6.760;2023-03-23T03:49:16;99871.22;;;10.73;100.00
70015;BME280;57358;51.094;6.760;2023-03-23T03:51:42;99895.91;;;10.83;100.00
70015;BME280;57358;51.094;6.760;2023-03-23T03:54:08;99905.38;;;10.86;100.00
70015;BME280;57358;51.094;6.760;2023-03-23T03:56:33;99932.91;;;10.93;100.00
70015;BME280;57358;51.094;6.760;2023-03-23T03:59:06;99871.50;;;10.68;100.00
70015;BME280;57358;51.094;6.760;2023-03-23T04:01:33;99906.19;;;10.86;100.00
70015;BME280;57358;51.094;6.760;2023-03-23T04:03:59;99890.63;;;10.70;100.00
70015;BME280;57358;51.094;6.760;2023-03-23T04:06:25;99826.31;;;10.37;100.00
70015;BME280;57358;51.094;6.760;2023-03-23T04:08:54;99843.47;;;10.56;100.00
70015;BME280;57358;51.094;6.760;2023-03-23T04:11:20;99832.00;;;10.44;100.00
70015;BME280;57358;51.094;6.760;2023-03-23T04:13:45;99907.50;;;10.93;100.00
70015;BME280;57358;51.094;6.760;2023-03-23T04:16:11;99898.69;;;10.94;100.00
70015;BME280;57358;51.094;6.760;2023-03-23T04:18:36;99902.88;;;10.97;100.00
70015;BME280;57358;51.094;6.760;2023-03-23T04:21:03;99906.56;;;10.94;100.00
70015;BME280;57358;51.094;6.760;2023-03-23T04:23:30;99911.03;;;10.92;100.00
70015;BME280;57358;51.094;6.760;2023-03-23T04:25:58;99904.22;;;10.90;100.00
70015;BME280;57358;51.094;6.760;2023-03-23T04:28:24;99920.06;;;10.88;100.00
70015;BME280;57358;51.094;6.760;2023-03-23T04:30:51;99884.63;;;10.68;100.00
70015;BME280;57358;51.094;6.760;2023-03-23T04:33:24;99916.50;;;10.89;100.00
70015;BME280;57358;51.094;6.760;2023-03-23T04:35:56;99878.78;;;10.65;100.00
70015;BME280;57358;51.094;6.760;2023-03-23T04:38:22;99931.53;;;10.87;100.00
70015;BME280;57358;51.094;6.760;2023-03-23T04:40:51;99925.97;;;10.92;100.00
70015;BME280;57358;51.094;6.760;2023-03-23T04:43:18;99925.03;;;10.93;100.00
70015;BME280;57358;51.094;6.760;2023-03-23T04:45:46;99878.22;;;10.60;100.00
70015;BME280;57358;51.094;6.760;2023-03-23T04:48:12;99653.91;;;9.19;100.00
70015;BME280;57358;51.094;6.760;2023-03-23T04:50:37;99924.16;;;10.80;100.00
70015;BME280;57358;51.094;6.760;2023-03-23T04:53:04;99939.91;;;10.92;100.00
70015;BME280;57358;51.094;6.760;2023-03-23T04:55:31;99918.38;;;10.74;100.00
70015;BME280;57358;51.094;6.760;2023-03-23T04:58:04;99936.38;;;10.93;100.00
70015;BME280;57358;51.094;6.760;2023-03-23T05:00:31;99921.34;;;10.83;100.00
70015;BME280;57358;51.094;6.760;2023-03-23T05:02:57;99939.63;;;10.97;100.00
70015;BME280;57358;51.094;6.760;2023-03-23T05:05:24;99822.44;;;10.30;100.00
70015;BME280;57358;51.094;6.760;2023-03-23T05:07:50;99920.53;;;10.95;100.00
70015;BME280;57358;51.094;6.760;2023-03-23T05:10:16;99940.09;;;11.16;100.00
70015;BME280;57358;51.094;6.760;2023-03-23T05:12:42;99934.00;;;11.16;100.00
70015;BME280;57358;51.094;6.760;2023-03-23T05:15:10;99923.38;;;11.17;100.00
70015;BME280;57358;51.094;6.760;2023-03-23T05:17:36;99936.34;;;11.21;100.00
70015;BME280;57358;51.094;6.760;2023-03-23T05:20:03;99909.75;;;11.25;100.00
70015;BME280;57358;51.094;6.760;2023-03-23T05:22:30;99677.41;;;9.75;100.00
70015;BME280;57358;51.094;6.760;2023-03-23T05:24:59;99895.25;;;11.20;100.00
70015;BME280;57358;51.094;6.760;2023-03-23T05:27:27;99828.41;;;10.72;100.00
70015;BME280;57358;51.094;6.760;2023-03-23T05:29:56;99884.97;;;11.16;100.00
70015;BME280;57358;51.094;6.760;2023-03-23T05:32:24;99900.81;;;11.28;100.00
70015;BME280;57358;51.094;6.760;2023-03-23T05:34:57;99889.34;;;11.16;100.00
70015;BME280;57358;51.094;6.760;2023-03-23T05:37:24;99915.31;;;11.33;100.00
70015;BME280;57358;51.094;6.760;2023-03-23T05:39:49;99925.09;;;11.31;100.00
70015;BME280;57358;51.094;6.760;2023-03-23T05:42:22;99918.88;;;11.32;100.00
70015;BME280;57358;51.094;6.760;2023-03-23T05:44:48;99920.25;;;11.38;100.00
70015;BME280;57358;51.094;6.760;2023-03-23T05:47:14;99889.66;;;11.24;100.00
70015;BME280;57358;51.094;6.760;2023-03-23T05:49:39;99851.22;;;10.97;100.00
70015;BME280;57358;51.094;6.760;2023-03-23T05:52:04;99881.91;;;11.23;100.00
70015;BME280;57358;51.094;6.760;2023-03-23T05:54:30;99879.78;;;11.28;100.00
70015;BME280;57358;51.094;6.760;2023-03-23T05:56:55;99899.97;;;11.40;100.00
70015;BME280;57358;51.094;6.760;2023-03-23T05:59:20;99879.47;;;11.32;100.00
70015;BME280;57358;51.094;6.760;2023-03-23T06:01:46;99897.97;;;11.44;100.00
70015;BME280;57358;51.094;6.760;2023-03-23T06:04:11;99897.88;;;11.32;100.00
70015;BME280;57358;51.094;6.760;2023-03-23T06:06:39;99904.41;;;11.40;100.00
70015;BME280;57358;51.094;6.760;2023-03-23T06:09:06;99913.25;;;11.38;100.00
70015;BME280;57358;51.094;6.760;2023-03-23T06:11:32;99914.72;;;11.43;100.00
70015;BME280;57358;51.094;6.760;2023-03-23T06:13:57;99895.22;;;11.32;100.00
70015;BME280;57358;51.094;6.760;2023-03-23T06:16:22;99917.00;;;11.60;100.00
70015;BME280;57358;51.094;6.760;2023-03-23T06:18:48;99805.00;;;10.95;100.00
70015;BME280;57358;51.094;6.760;2023-03-23T06:21:14;99891.38;;;11.51;100.00
70015;BME280;57358;51.094;6.760;2023-03-23T06:23:40;99897.47;;;11.51;100.00
70015;BME280;57358;51.094;6.760;2023-03-23T06:26:07;99913.66;;;11.71;100.00
70015;BME280;57358;51.094;6.760;2023-03-23T06:28:33;99877.59;;;11.47;100.00
70015;BME280;57358;51.094;6.760;2023-03-23T06:31:03;99913.75;;;11.69;100.00
70015;BME280;57358;51.094;6.760;2023-03-23T06:33:36;99904.16;;;11.81;100.00
70015;BME280;57358;51.094;6.760;2023-03-23T06:36:03;99890.72;;;11.73;100.00
70015;BME280;57358;51.094;6.760;2023-03-23T06:38:30;99899.97;;;11.91;100.00
70015;BME280;57358;51.094;6.760;2023-03-23T06:40:55;99816.00;;;11.51;99.80
70015;BME280;57358;51.094;6.760;2023-03-23T06:43:22;99848.03;;;11.69;98.67
70015;BME280;57358;51.094;6.760;2023-03-23T06:45:47;99832.47;;;11.66;98.29
70015;BME280;57358;51.094;6.760;2023-03-23T06:48:13;99855.47;;;11.75;98.37
70015;BME280;57358;51.094;6.760;2023-03-23T06:50:42;99893.44;;;11.97;98.12
70015;BME280;57358;51.094;6.760;2023-03-23T06:53:08;99708.19;;;10.77;98.77
70015;BME280;57358;51.094;6.760;2023-03-23T06:55:33;99910.88;;;11.98;98.98
70015;BME280;57358;51.094;6.760;2023-03-23T06:57:59;99913.13;;;11.91;98.74
70015;BME280;57358;51.094;6.760;2023-03-23T07:00:26;99913.41;;;12.00;98.84
70015;BME280;57358;51.094;6.760;2023-03-23T07:02:52;99911.06;;;12.08;98.02
70015;BME280;57358;51.094;6.760;2023-03-23T07:05:18;99878.94;;;11.91;97.68
70015;BME280;57358;51.094;6.760;2023-03-23T07:07:43;99910.78;;;12.00;98.44
70015;BME280;57358;51.094;6.760;2023-03-23T07:10:09;99867.56;;;11.78;98.12
70015;BME280;57358;51.094;6.760;2023-03-23T07:12:35;99895.09;;;11.98;97.95
70015;BME280;57358;51.094;6.760;2023-03-23T07:15:02;99902.25;;;12.09;97.70
70015;BME280;57358;51.094;6.760;2023-03-23T07:17:28;99866.94;;;11.87;97.30
70015;BME280;57358;51.094;6.760;2023-03-23T07:19:53;99914.63;;;12.20;97.12
70015;BME280;57358;51.094;6.760;2023-03-23T07:22:19;99876.16;;;12.06;96.59
70015;BME280;57358;51.094;6.760;2023-03-23T07:24:44;99833.41;;;11.91;94.84
70015;BME280;57358;51.094;6.760;2023-03-23T07:27:10;99882.78;;;12.35;93.33
70015;BME280;57358;51.094;6.760;2023-03-23T07:29:35;99874.56;;;12.40;92.12
70015;BME280;57358;51.094;6.760;2023-03-23T07:32:04;99868.63;;;12.49;90.81
70015;BME280;57358;51.094;6.760;2023-03-23T07:34:30;99842.69;;;12.56;89.04
70015;BME280;57358;51.094;6.760;2023-03-23T07:36:55;99831.84;;;12.36;88.61
70015;BME280;57358;51.094;6.760;2023-03-23T07:39:21;99679.84;;;11.56;86.87
70015;BME280;57358;51.094;6.760;2023-03-23T07:41:48;99745.66;;;11.92;87.44
70015;BME280;57358;51.094;6.760;2023-03-23T07:44:14;99772.13;;;12.26;86.77
70015;BME280;57358;51.094;6.760;2023-03-23T07:46:39;99828.97;;;12.64;85.29
70015;BME280;57358;51.094;6.760;2023-03-23T07:49:05;99835.31;;;12.72;85.57
70015;BME280;57358;51.094;6.760;2023-03-23T07:51:31;99821.94;;;12.75;84.38
70015;BME280;57358;51.094;6.760;2023-03-23T07:53:57;99813.06;;;12.76;83.76
70015;BME280;57358;51.094;6.760;2023-03-23T07:56:22;99807.59;;;12.80;84.00
70015;BME280;57358;51.094;6.760;2023-03-23T07:58:48;99682.72;;;12.02;83.43
70015;BME280;57358;51.094;6.760;2023-03-23T08:01:14;99803.03;;;12.82;82.59
70015;BME280;57358;51.094;6.760;2023-03-23T08:03:40;99808.56;;;12.90;82.70
70015;BME280;57358;51.094;6.760;2023-03-23T08:06:06;99647.47;;;11.93;82.73
70015;BME280;57358;51.094;6.760;2023-03-23T08:08:32;99755.00;;;12.67;82.27
70015;BME280;57358;51.094;6.760;2023-03-23T08:10:58;99815.31;;;13.05;81.89
70015;BME280;57358;51.094;6.760;2023-03-23T08:13:24;99762.88;;;13.13;81.30
70015;BME280;57358;51.094;6.760;2023-03-23T08:15:49;99789.34;;;13.23;79.89
70015;BME280;57358;51.094;6.760;2023-03-23T08:18:15;99788.63;;;13.21;78.68
70015;BME280;57358;51.094;6.760;2023-03-23T08:20:40;99775.31;;;13.23;79.18
70015;BME280;57358;51.094;6.760;2023-03-23T08:23:07;99773.63;;;13.22;79.09
70015;BME280;57358;51.094;6.760;2023-03-23T08:25:32;99736.03;;;13.08;78.38
70015;BME280;57358;51.094;6.760;2023-03-23T08:27:59;99731.97;;;13.15;78.10
70015;BME280;57358;51.094;6.760;2023-03-23T08:30:27;99725.00;;;13.14;77.97
70015;BME280;57358;51.094;6.760;2023-03-23T08:32:54;99766.34;;;13.48;77.98
70015;BME280;57358;51.094;6.760;2023-03-23T08:35:20;99757.13;;;13.42;77.18
70015;BME280;57358;51.094;6.760;2023-03-23T08:37:46;99744.91;;;13.41;77.46
70015;BME280;57358;51.094;6.760;2023-03-23T08:40:13;99692.19;;;13.18;76.32
70015;BME280;57358;51.094;6.760;2023-03-23T08:42:41;99749.56;;;13.60;75.73
70015;BME280;57358;51.094;6.760;2023-03-23T08:45:09;99712.31;;;13.31;76.00
70015;BME280;57358;51.094;6.760;2023-03-23T08:47:36;99755.53;;;13.73;75.43
70015;BME280;57358;51.094;6.760;2023-03-23T08:50:07;99763.50;;;13.94;74.55
70015;BME280;57358;51.094;6.760;2023-03-23T08:52:33;99783.06;;;14.24;74.52
70015;BME280;57358;51.094;6.760;2023-03-23T08:54:58;99758.59;;;14.22;73.90
70015;BME280;57358;51.094;6.760;2023-03-23T08:57:25;99697.03;;;14.01;73.53
70015;BME280;57358;51.094;6.760;2023-03-23T08:59:51;99745.22;;;14.35;72.33
70015;BME280;57358;51.094;6.760;2023-03-23T09:02:19;99746.06;;;14.35;72.66
70015;BME280;57358;51.094;6.760;2023-03-23T09:04:45;99663.16;;;13.85;71.87
70015;BME280;57358;51.094;6.760;2023-03-23T09:07:11;99730.59;;;14.10;72.60
70015;BME280;57358;51.094;6.760;2023-03-23T09:09:38;99747.00;;;14.34;73.17
70015;BME280;57358;51.094;6.760;2023-03-23T09:12:07;99709.75;;;14.28;72.37
70015;BME280;57358;51.094;6.760;2023-03-23T09:14:34;99725.56;;;14.49;70.99
70015;BME280;57358;51.094;6.760;2023-03-23T09:16:59;99530.28;;;13.34;70.55
70015;BME280;57358;51.094;6.760;2023-03-23T09:19:26;99617.69;;;13.92;71.49
70015;BME280;57358;51.094;6.760;2023-03-23T09:21:51;99570.56;;;13.57;71.54
70015;BME280;57358;51.094;6.760;2023-03-23T09:24:16;99658.56;;;14.40;70.60
70015;BME280;57358;51.094;6.760;2023-03-23T09:26:42;99654.28;;;14.49;69.43
70015;BME280;57358;51.094;6.760;2023-03-23T09:29:07;99637.66;;;14.27;68.86
70015;BME280;57358;51.094;6.760;2023-03-23T09:31:33;99649.09;;;14.16;69.29
70015;BME280;57358;51.094;6.760;2023-03-23T09:34:02;99660.75;;;14.14;70.04
70015;BME280;57358;51.094;6.760;2023-03-23T09:36:29;99649.38;;;14.13;68.74
70015;BME280;57358;51.094;6.760;2023-03-23T09:38:57;99636.44;;;13.89;69.00
70015;BME280;57358;51.094;6.760;2023-03-23T09:41:46;99659.41;;;13.99;69.67
70015;BME280;57358;51.094;6.760;2023-03-23T09:50:12;99625.81;;;13.80;68.05
70015;BME280;57358;51.094;6.760;2023-03-23T09:55:13;99614.59;;;13.66;69.10
70015;BME280;57358;51.094;6.760;2023-03-23T10:00:39;99627.94;;;13.86;69.89
70015;BME280;57358;51.094;6.760;2023-03-23T10:03:15;99581.50;;;13.73;69.64
70015;BME280;57358;51.094;6.760;2023-03-23T10:05:45;99632.84;;;14.11;69.83
70015;BME280;57358;51.094;6.760;2023-03-23T10:08:14;99617.69;;;13.92;69.32
70015;BME280;57358;51.094;6.760;2023-03-23T10:13:23;99681.22;;;14.22;69.90
70015;BME280;57358;51.094;6.760;2023-03-23T10:15:58;99698.84;;;14.00;71.00
70015;BME280;57358;51.094;6.760;2023-03-23T10:18:38;99722.13;;;13.95;72.94
70015;BME280;57358;51.094;6.760;2023-03-23T10:21:11;99668.72;;;13.27;74.07
70015;BME280;57358;51.094;6.760;2023-03-23T10:23:58;99776.63;;;13.62;76.77
70015;BME280;57358;51.094;6.760;2023-03-23T10:26:55;99799.75;;;13.59;78.06
70015;BME280;57358;51.094;6.760;2023-03-23T10:29:38;99815.59;;;13.36;78.96
70015;BME280;57358;51.094;6.760;2023-03-23T10:32:19;99786.34;;;13.05;80.57
70015;BME280;57358;51.094;6.760;2023-03-23T10:34:56;99862.47;;;12.97;83.61
70015;BME280;57358;51.094;6.760;2023-03-23T10:37:30;99864.09;;;11.90;92.21
70015;BME280;57358;51.094;6.760;2023-03-23T10:39:59;100012.06;;;11.92;100.00
70015;BME280;57358;51.094;6.760;2023-03-23T10:42:28;100061.34;;;11.63;100.00
70015;BME280;57358;51.094;6.760;2023-03-23T10:44:56;100101.84;;;11.33;100.00
70015;BME280;57358;51.094;6.760;2023-03-23T10:47:22;100131.44;;;11.23;100.00
70015;BME280;57358;51.094;6.760;2023-03-23T10:50:02;100162.22;;;11.21;100.00
70015;BME280;57358;51.094;6.760;2023-03-23T10:52:38;100181.16;;;11.11;100.00
70015;BME280;57358;51.094;6.760;2023-03-23T10:55:09;100192.88;;;11.06;100.00
70015;BME280;57358;51.094;6.760;2023-03-23T10:57:37;100121.03;;;10.65;100.00
70015;BME280;57358;51.094;6.760;2023-03-23T11:00:23;100122.31;;;10.44;100.00
70015;BME280;57358;51.094;6.760;2023-03-23T11:05:43;100168.63;;;10.73;100.00
70015;BME280;57358;51.094;6.760;2023-03-23T11:08:19;100161.78;;;10.71;100.00
70015;BME280;57358;51.094;6.760;2023-03-23T11:10:51;100181.44;;;10.92;100.00
70015;BME280;57358;51.094;6.760;2023-03-23T11:13:19;100042.38;;;9.92;100.00
70015;BME280;57358;51.094;6.760;2023-03-23T11:15:47;100192.34;;;11.01;100.00
70015;BME280;57358;51.094;6.760;2023-03-23T11:18:26;100183.59;;;11.00;100.00
70015;BME280;57358;51.094;6.760;2023-03-23T11:20:58;100162.72;;;10.70;100.00
70015;BME280;57358;51.094;6.760;2023-03-23T11:23:24;100191.94;;;10.78;100.00
70015;BME280;57358;51.094;6.760;2023-03-23T11:26:21;100203.19;;;10.66;100.00
70015;BME280;57358;51.094;6.760;2023-03-23T11:29:04;100165.53;;;10.22;100.00
70015;BME280;57358;51.094;6.760;2023-03-23T11:31:37;100143.88;;;10.34;100.00
70015;BME280;57358;51.094;6.760;2023-03-23T11:34:05;100163.84;;;10.66;100.00
70015;BME280;57358;51.094;6.760;2023-03-23T11:36:40;100123.66;;;10.65;100.00
70015;BME280;57358;51.094;6.760;2023-03-23T11:39:28;100195.41;;;11.07;100.00
70015;BME280;57358;51.094;6.760;2023-03-23T11:41:55;100184.22;;;11.18;100.00
70015;BME280;57358;51.094;6.760;2023-03-23T11:44:26;100109.72;;;10.92;100.00
70015;BME280;57358;51.094;6.760;2023-03-23T11:52:51;100171.72;;;11.36;100.00
70015;BME280;57358;51.094;6.760;2023-03-23T11:55:25;100158.88;;;11.31;100.00
70015;BME280;57358;51.094;6.760;2023-03-23T11:57:52;100152.75;;;11.45;100.00
70015;BME280;57358;51.094;6.760;2023-03-23T12:00:21;100156.22;;;11.86;100.00
70015;BME280;57358;51.094;6.760;2023-03-23T12:03:08;100155.81;;;12.19;100.00
70015;BME280;57358;51.094;6.760;2023-03-23T12:08:48;100140.50;;;11.98;100.00
70015;BME280;57358;51.094;6.760;2023-03-23T12:11:29;100154.94;;;11.78;100.00
70015;BME280;57358;51.094;6.760;2023-03-23T12:19:30;100095.91;;;12.23;100.00
70015;BME280;57358;51.094;6.760;2023-03-23T12:27:46;100148.38;;;14.44;100.00
70015;BME280;57358;51.094;6.760;2023-03-23T12:36:27;100117.47;;;13.40;100.00
70015;BME280;57358;51.094;6.760;2023-03-23T12:39:02;100049.19;;;13.37;100.00
70015;BME280;57358;51.094;6.760;2023-03-23T12:41:54;100120.84;;;13.66;100.00
70015;BME280;57358;51.094;6.760;2023-03-23T12:44:38;99961.19;;;12.67;100.00
70015;BME280;57358;51.094;6.760;2023-03-23T12:47:21;100075.13;;;13.06;100.00
70015;BME280;57358;51.094;6.760;2023-03-23T12:53:08;99961.47;;;12.51;100.00
70015;BME280;57358;51.094;6.760;2023-03-23T12:55:39;100127.03;;;13.30;100.00
70015;BME280;57358;51.094;6.760;2023-03-23T12:58:14;100135.34;;;13.24;100.00
70015;BME280;57358;51.094;6.760;2023-03-23T13:03:31;99932.13;;;11.82;100.00
70015;BME280;57358;51.094;6.760;2023-03-23T13:08:41;100054.09;;;12.56;100.00
70015;BME280;57358;51.094;6.760;2023-03-23T13:11:18;100090.56;;;12.87;100.00
70015;BME280;57358;51.094;6.760;2023-03-23T13:13:49;100096.75;;;12.98;100.00
70015;BME280;57358;51.094;6.760;2023-03-23T13:16:26;100101.28;;;13.21;100.00
70015;BME280;57358;51.094;6.760;2023-03-23T13:21:37;100032.56;;;12.75;100.00
70015;BME280;57358;51.094;6.760;2023-03-23T13:24:06;100085.72;;;13.17;100.00
70015;BME280;57358;51.094;6.760;2023-03-23T13:26:38;100085.47;;;13.33;100.00
70015;BME280;57358;51.094;6.760;2023-03-23T13:29:19;100112.44;;;13.61;100.00
70015;BME280;57358;51.094;6.760;2023-03-23T13:31:46;100130.13;;;13.83;100.00
70015;BME280;57358;51.094;6.760;2023-03-23T13:34:17;100099.16;;;13.74;100.00
70015;BME280;57358;51.094;6.760;2023-03-23T13:36:59;100062.16;;;13.87;100.00
70015;BME280;57358;51.094;6.760;2023-03-23T13:39:34;100018.88;;;14.01;100.00
70015;BME280;57358;51.094;6.760;2023-03-23T13:42:18;99865.16;;;13.31;94.36
70015;BME280;57358;51.094;6.760;2023-03-23T13:50:12;99978.59;;;14.10;90.54
70015;BME280;57358;51.094;6.760;2023-03-23T13:52:50;99941.19;;;13.60;91.71
70015;BME280;57358;51.094;6.760;2023-03-23T14:03:18;100052.22;;;13.55;99.75
70015;BME280;57358;51.094;6.760;2023-03-23T14:05:48;100053.09;;;13.67;99.38
70015;BME280;57358;51.094;6.760;2023-03-23T14:08:25;99952.44;;;13.15;99.86
70015;BME280;57358;51.094;6.760;2023-03-23T14:14:04;100050.72;;;13.75;100.00
70015;BME280;57358;51.094;6.760;2023-03-23T14:16:44;100032.22;;;13.52;100.00
70015;BME280;57358;51.094;6.760;2023-03-23T14:21:52;99983.81;;;13.65;100.00
70015;BME280;57358;51.094;6.760;2023-03-23T14:24:24;99974.16;;;13.99;100.00
70015;BME280;57358;51.094;6.760;2023-03-23T14:27:07;100008.69;;;14.30;97.15
70015;BME280;57358;51.094;6.760;2023-03-23T14:29:33;100030.78;;;14.51;96.60
70015;BME280;57358;51.094;6.760;2023-03-23T14:31:59;100030.78;;;14.63;95.70
70015;BME280;57358;51.094;6.760;2023-03-23T14:34:26;99965.28;;;14.23;95.66
70015;BME280;57358;51.094;6.760;2023-03-23T14:36:59;99974.16;;;14.10;97.34